createdAt,value
2019-05-23T00:00:04.384Z,4.53
2019-05-23T00:02:53.394Z,4.17
2019-05-23T00:05:43.051Z,3.90
2019-05-23T00:08:32.308Z,4.45
2019-05-23T00:11:22.378Z,4.08
2019-05-23T00:14:20.338Z,3.47
2019-05-23T00:16:51.802Z,4.33
2019-05-23T00:19:21.898Z,4.58
2019-05-23T00:21:53.035Z,4.58
2019-05-23T00:24:24.051Z,4.62
2019-05-23T00:26:56.387Z,4.00
2019-05-23T00:29:27.290Z,4.28
2019-05-23T00:31:58.594Z,4.03
2019-05-23T00:34:31.714Z,3.87
2019-05-23T00:37:02.572Z,4.05
2019-05-23T00:39:32.275Z,3.70
2019-05-23T00:42:06.385Z,3.77
2019-05-23T00:44:38.065Z,3.92
2019-05-23T00:47:09.511Z,3.57
2019-05-23T00:49:39.214Z,3.65
2019-05-23T00:52:10.047Z,4.00
2019-05-23T00:54:39.759Z,3.50
2019-05-23T00:57:10.227Z,3.77
2019-05-23T00:59:40.138Z,4.22
2019-05-23T01:02:11.374Z,3.60
2019-05-23T01:04:42.275Z,3.50
2019-05-23T01:07:13.920Z,3.70
2019-05-23T01:09:44.498Z,3.98
2019-05-23T01:12:22.419Z,4.20
2019-05-23T01:14:54.021Z,3.90
2019-05-23T01:17:25.954Z,3.75
2019-05-23T01:19:57.239Z,4.35
2019-05-23T01:22:26.943Z,4.35
2019-05-23T01:24:56.650Z,3.75
2019-05-23T01:27:26.458Z,3.12
2019-05-23T01:29:58.267Z,3.83
2019-05-23T01:32:42.194Z,3.98
2019-05-23T01:35:13.614Z,3.67
2019-05-23T01:37:45.261Z,3.25
2019-05-23T01:42:46.759Z,4.00
2019-05-23T01:45:17.679Z,3.65
2019-05-23T01:47:48.983Z,3.83
2019-05-23T01:50:21.630Z,3.95
2019-05-23T01:52:51.762Z,4.20
2019-05-23T01:55:21.770Z,4.03
2019-05-23T01:57:51.482Z,3.87
2019-05-23T02:00:21.599Z,4.05
2019-05-23T02:02:51.334Z,3.55
2019-05-23T02:05:21.560Z,4.08
2019-05-23T02:07:51.320Z,4.15
2019-05-23T02:10:21.314Z,3.52
2019-05-23T02:12:51.572Z,3.35
2019-05-23T02:15:22.176Z,3.52
2019-05-23T02:17:52.526Z,4.00
2019-05-23T02:20:23.523Z,3.77
2019-05-23T02:22:54.943Z,4.28
2019-05-23T02:25:25.151Z,4.40
2019-05-23T02:27:55.698Z,4.05
2019-05-23T02:30:35.819Z,4.00
2019-05-23T02:32:57.575Z,3.40
2019-05-23T02:35:27.578Z,3.50
2019-05-23T02:38:12.466Z,3.40
2019-05-23T02:40:59.996Z,3.22
2019-05-23T02:43:36.739Z,3.15
2019-05-23T02:46:23.679Z,3.10
2019-05-23T02:48:55.995Z,2.77
2019-05-23T02:51:29.566Z,2.60
2019-05-23T02:54:01.908Z,3.27
2019-05-23T02:56:37.314Z,2.83
2019-05-23T02:59:17.613Z,3.15
2019-05-23T03:02:20.508Z,2.33
2019-05-23T03:04:52.437Z,2.90
2019-05-23T03:07:24.854Z,2.67
2019-05-23T03:09:55.098Z,2.65
2019-05-23T03:12:26.386Z,3.00
2019-05-23T03:14:59.003Z,3.02
2019-05-23T03:17:32.777Z,3.40
2019-05-23T03:20:06.003Z,2.62
2019-05-23T03:22:41.240Z,3.45
2019-05-23T03:25:35.517Z,2.80
2019-05-23T03:28:08.434Z,2.85
2019-05-23T03:30:40.174Z,3.40
2019-05-23T03:35:56.348Z,3.72
2019-05-23T03:38:27.852Z,4.08
2019-05-23T03:40:58.313Z,3.20
2019-05-23T03:43:28.211Z,3.30
2019-05-23T03:46:00.948Z,3.20
2019-05-23T03:48:31.252Z,3.90
2019-05-23T03:51:02.793Z,3.20
2019-05-23T03:53:32.490Z,3.37
2019-05-23T03:56:04.028Z,3.25
2019-05-23T03:58:34.351Z,3.10
2019-05-23T04:01:06.698Z,3.85
2019-05-23T04:03:39.999Z,3.12
2019-05-23T04:06:09.518Z,3.55
2019-05-23T04:08:39.303Z,3.10
2019-05-23T04:11:09.635Z,3.50
2019-05-23T04:13:39.535Z,2.90
2019-05-23T04:16:09.320Z,2.95
2019-05-23T04:18:39.028Z,3.10
2019-05-23T04:21:09.282Z,3.77
2019-05-23T04:23:39.293Z,3.12
2019-05-23T04:26:09.320Z,3.00
2019-05-23T04:28:39.140Z,2.92
2019-05-23T04:31:12.944Z,2.75
2019-05-23T04:33:40.948Z,3.00
2019-05-23T04:36:10.899Z,2.92
2019-05-23T04:38:40.720Z,2.77
2019-05-23T04:41:10.634Z,2.85
2019-05-23T04:43:40.452Z,3.40
2019-05-23T04:46:10.170Z,2.92
2019-05-23T04:48:39.939Z,2.40
2019-05-23T04:51:09.849Z,2.58
2019-05-23T04:53:39.564Z,2.87
2019-05-23T04:56:10.482Z,3.15
2019-05-23T04:58:40.699Z,2.52
2019-05-23T05:01:10.747Z,3.02
2019-05-23T05:03:41.851Z,4.08
2019-05-23T05:06:11.910Z,3.08
2019-05-23T05:08:41.621Z,3.12
2019-05-23T05:11:11.747Z,3.80
2019-05-23T05:13:42.270Z,3.33
2019-05-23T05:16:12.149Z,2.83
2019-05-23T05:18:41.851Z,3.55
2019-05-23T05:21:11.663Z,2.98
2019-05-23T05:23:41.365Z,3.95
2019-05-23T05:26:16.778Z,3.33
2019-05-23T05:28:46.831Z,3.55
2019-05-23T05:31:16.534Z,3.10
2019-05-23T05:33:46.255Z,3.40
2019-05-23T05:36:16.182Z,4.20
2019-05-23T05:38:45.983Z,3.52
2019-05-23T05:41:15.750Z,4.08
2019-05-23T05:43:45.455Z,3.60
2019-05-23T05:46:20.446Z,3.08
2019-05-23T05:48:50.680Z,3.70
2019-05-23T05:51:20.797Z,3.37
2019-05-23T05:53:50.625Z,3.87
2019-05-23T05:56:20.318Z,3.40
2019-05-23T05:58:50.435Z,3.60
2019-05-23T06:01:33.226Z,3.67
2019-05-23T06:03:54.255Z,3.30
2019-05-23T06:06:25.567Z,3.72
2019-05-23T06:08:56.974Z,3.77
2019-05-23T06:11:26.737Z,4.20
2019-05-23T06:13:56.591Z,3.33
2019-05-23T06:16:26.740Z,3.20
2019-05-23T06:18:57.000Z,4.10
2019-05-23T06:21:28.463Z,4.55
2019-05-23T06:23:59.586Z,3.55
2019-05-23T06:26:29.330Z,3.90
2019-05-23T06:28:59.051Z,3.42
2019-05-23T06:31:29.269Z,3.65
2019-05-23T06:33:58.977Z,3.55
2019-05-23T06:36:29.816Z,3.95
2019-05-23T06:38:59.730Z,3.50
2019-05-23T06:41:29.566Z,3.20
2019-05-23T06:43:59.290Z,3.25
2019-05-23T06:46:29.400Z,3.60
2019-05-23T06:48:59.147Z,3.92
2019-05-23T06:51:29.155Z,4.58
2019-05-23T06:53:59.563Z,4.65
2019-05-23T06:56:29.316Z,5.08
2019-05-23T06:59:00.029Z,5.87
2019-05-23T07:01:29.912Z,6.70
2019-05-23T07:04:00.386Z,7.22
2019-05-23T07:06:30.241Z,7.92
2019-05-23T07:08:59.982Z,8.20
2019-05-23T07:11:29.731Z,8.10
2019-05-23T07:13:59.649Z,7.35
2019-05-23T07:16:29.453Z,6.83
2019-05-23T07:18:59.305Z,6.70
2019-05-23T07:21:29.418Z,5.60
2019-05-23T07:23:59.178Z,6.35
2019-05-23T07:26:29.684Z,7.28
2019-05-23T07:28:59.454Z,7.37
2019-05-23T07:31:31.301Z,7.28
2019-05-23T07:34:02.497Z,7.83
2019-05-23T07:36:32.079Z,7.80
2019-05-23T07:39:01.935Z,7.62
2019-05-23T07:41:32.543Z,7.90
2019-05-23T07:44:02.913Z,7.78
2019-05-23T07:46:32.667Z,8.48
2019-05-23T07:49:03.469Z,7.93
2019-05-23T07:51:33.170Z,7.53
2019-05-23T07:54:04.885Z,7.00
2019-05-23T07:59:05.315Z,7.40
2019-05-23T08:01:36.993Z,7.30
2019-05-23T08:06:38.138Z,8.15
2019-05-23T08:09:09.680Z,8.78
2019-05-23T08:11:40.190Z,7.70
2019-05-23T08:14:12.207Z,9.50
2019-05-23T08:16:42.112Z,8.68
2019-05-23T08:19:18.548Z,9.23
2019-05-23T08:21:43.563Z,5.47
2019-05-23T08:24:13.421Z,4.85
2019-05-23T08:26:45.323Z,2.90
2019-05-23T08:29:26.012Z,2.15
2019-05-23T08:31:46.511Z,2.62
2019-05-23T08:34:16.251Z,3.00
2019-05-23T08:36:46.070Z,3.15
2019-05-23T08:39:16.274Z,3.10
2019-05-23T08:41:46.474Z,3.02
2019-05-23T08:44:16.440Z,3.02
2019-05-23T08:46:47.042Z,5.08
2019-05-23T08:49:17.188Z,6.90
2019-05-23T08:51:46.888Z,8.10
2019-05-23T08:54:16.599Z,8.35
2019-05-23T08:56:46.245Z,9.18
2019-05-23T08:59:16.599Z,9.50
2019-05-23T09:01:46.424Z,10.03
2019-05-23T09:04:16.679Z,8.73
2019-05-23T09:06:46.404Z,9.10
2019-05-23T09:09:28.966Z,9.35
2019-05-23T09:11:48.475Z,9.55
2019-05-23T09:14:19.534Z,7.78
2019-05-23T09:16:49.255Z,7.17
2019-05-23T09:19:19.202Z,6.87
2019-05-23T09:21:49.019Z,6.85
2019-05-23T09:24:18.719Z,6.55
2019-05-23T09:26:49.330Z,7.10
2019-05-23T09:29:19.048Z,7.28
2019-05-23T09:31:49.184Z,7.08
2019-05-23T09:34:19.488Z,7.75
2019-05-23T09:36:49.227Z,7.50
2019-05-23T09:39:20.606Z,7.17
2019-05-23T09:41:50.362Z,6.75
2019-05-23T09:44:21.196Z,10.07
2019-05-23T09:46:50.947Z,7.70
2019-05-23T09:49:20.650Z,7.30
2019-05-23T09:51:53.128Z,8.15
2019-05-23T09:54:23.417Z,11.10
2019-05-23T09:56:53.174Z,9.48
2019-05-23T09:59:22.957Z,11.40
2019-05-23T10:01:52.637Z,10.15
2019-05-23T10:04:22.448Z,9.40
2019-05-23T10:06:52.166Z,8.13
2019-05-23T10:09:21.925Z,8.63
2019-05-23T10:11:51.831Z,9.55
2019-05-23T10:14:23.154Z,8.35
2019-05-23T10:16:52.858Z,7.28
2019-05-23T10:19:22.579Z,6.62
2019-05-23T10:21:53.302Z,7.08
2019-05-23T10:24:23.008Z,11.28
2019-05-23T10:26:52.859Z,8.68
2019-05-23T10:29:23.783Z,7.42
2019-05-23T10:31:53.530Z,9.00
2019-05-23T10:34:23.518Z,9.85
2019-05-23T10:36:53.498Z,12.37
2019-05-23T10:39:23.214Z,9.70
2019-05-23T10:41:53.976Z,8.58
2019-05-23T10:44:23.691Z,12.55
2019-05-23T10:46:53.406Z,7.70
2019-05-23T10:49:23.320Z,8.73
2019-05-23T10:51:53.023Z,9.13
2019-05-23T10:54:22.781Z,8.03
2019-05-23T10:56:53.495Z,7.60
2019-05-23T10:59:23.247Z,9.45
2019-05-23T11:01:52.959Z,10.75
2019-05-23T11:04:22.691Z,8.65
2019-05-23T11:06:52.508Z,8.28
2019-05-23T11:09:36.735Z,9.80
2019-05-23T11:11:55.015Z,9.33
2019-05-23T11:14:24.801Z,9.43
2019-05-23T11:16:54.743Z,10.78
2019-05-23T11:19:24.490Z,11.38
2019-05-23T11:21:54.406Z,14.18
2019-05-23T11:24:24.135Z,14.33
2019-05-23T11:26:53.900Z,15.95
2019-05-23T11:29:27.081Z,17.23
2019-05-23T11:31:55.453Z,15.78
2019-05-23T11:34:25.800Z,15.58
2019-05-23T11:36:55.755Z,14.65
2019-05-23T11:39:25.698Z,13.88
2019-05-23T11:41:55.675Z,12.95
2019-05-23T11:44:25.392Z,14.05
2019-05-23T11:46:55.639Z,15.08
2019-05-23T11:49:25.291Z,15.18
2019-05-23T11:51:55.311Z,14.87
2019-05-23T11:54:25.460Z,14.78
2019-05-23T11:56:55.918Z,15.90
2019-05-23T11:59:26.120Z,15.53
2019-05-23T12:01:57.449Z,14.10
2019-05-23T12:04:27.373Z,14.73
2019-05-23T12:07:07.401Z,14.73
2019-05-23T12:09:37.124Z,13.75
2019-05-23T12:12:06.870Z,13.83
2019-05-23T12:14:37.592Z,14.35
2019-05-23T12:17:07.388Z,14.25
2019-05-23T12:19:37.106Z,13.55
2019-05-23T12:22:06.875Z,15.40
2019-05-23T12:24:36.569Z,26.77
2019-05-23T12:27:06.296Z,15.13
2019-05-23T12:29:36.113Z,12.43
2019-05-23T12:32:07.722Z,13.90
2019-05-23T12:34:37.508Z,13.20
2019-05-23T12:37:18.870Z,14.95
2019-05-23T12:39:40.417Z,15.50
2019-05-23T12:42:10.153Z,18.90
2019-05-23T12:44:39.922Z,17.10
2019-05-23T12:47:11.214Z,18.07
2019-05-23T12:49:42.572Z,17.50
2019-05-23T12:52:12.474Z,17.02
2019-05-23T12:54:42.391Z,16.27
2019-05-23T12:57:12.941Z,18.02
2019-05-23T12:59:42.651Z,17.30
2019-05-23T13:02:13.978Z,15.70
2019-05-23T13:04:44.274Z,18.50
2019-05-23T13:07:14.204Z,17.32
2019-05-23T13:09:44.021Z,18.52
2019-05-23T13:12:16.434Z,18.15
2019-05-23T13:14:45.088Z,18.37
2019-05-23T13:17:14.799Z,16.75
2019-05-23T13:19:44.853Z,18.80
2019-05-23T13:22:14.779Z,20.00
2019-05-23T13:24:52.495Z,18.95
2019-05-23T13:27:16.150Z,16.23
2019-05-23T13:29:45.859Z,16.07
2019-05-23T13:32:15.903Z,15.08
2019-05-23T13:34:45.617Z,19.02
2019-05-23T13:37:17.114Z,18.15
2019-05-23T13:39:46.788Z,17.30
2019-05-23T13:42:16.509Z,31.25
2019-05-23T13:44:46.463Z,15.80
2019-05-23T13:47:16.181Z,17.55
2019-05-23T13:49:45.930Z,15.45
2019-05-23T13:52:15.682Z,22.95
2019-05-23T13:54:45.398Z,17.73
2019-05-23T13:57:15.708Z,21.45
2019-05-23T13:59:45.743Z,19.87
2019-05-23T14:02:16.002Z,24.10
2019-05-23T14:04:45.719Z,23.47
2019-05-23T14:07:17.363Z,23.55
2019-05-23T14:12:23.168Z,19.67
2019-05-23T14:14:48.321Z,19.27
2019-05-23T14:17:28.922Z,19.57
2019-05-23T14:19:58.843Z,22.75
2019-05-23T14:22:29.166Z,24.23
2019-05-23T14:24:58.933Z,40.35
2019-05-23T14:27:39.396Z,28.73
2019-05-23T14:30:14.608Z,23.35
2019-05-23T14:32:55.404Z,20.60
2019-05-23T14:35:27.232Z,21.15
2019-05-23T14:37:58.511Z,18.92
2019-05-23T14:40:28.463Z,17.15
2019-05-23T14:43:02.569Z,15.32
2019-05-23T14:45:43.967Z,15.23
2019-05-23T14:48:31.678Z,17.17
2019-05-23T14:51:18.945Z,19.17
2019-05-23T14:53:53.446Z,17.85
2019-05-23T14:56:24.756Z,15.63
2019-05-23T14:58:55.479Z,13.72
2019-05-23T15:01:26.899Z,15.45
2019-05-23T15:03:56.614Z,12.40
2019-05-23T15:06:26.426Z,10.40
2019-05-23T15:08:56.267Z,12.43
2019-05-23T15:11:26.007Z,12.00
2019-05-23T15:13:55.986Z,14.05
2019-05-23T15:16:26.117Z,12.05
2019-05-23T15:18:55.852Z,12.50
2019-05-23T15:21:25.556Z,12.60
2019-05-23T15:23:55.291Z,10.30
2019-05-23T15:26:24.996Z,12.65
2019-05-23T15:28:55.031Z,12.18
2019-05-23T15:31:24.765Z,13.53
2019-05-23T15:33:54.500Z,12.28
2019-05-23T15:36:24.252Z,13.00
2019-05-23T15:39:08.848Z,12.53
2019-05-23T15:41:28.478Z,15.35
2019-05-23T15:43:58.236Z,18.12
2019-05-23T15:46:27.956Z,15.35
2019-05-23T15:48:57.691Z,12.53
2019-05-23T15:51:37.915Z,12.90
2019-05-23T15:54:09.226Z,12.73
2019-05-23T15:56:46.418Z,18.55
2019-05-23T15:59:20.754Z,21.52
2019-05-23T16:01:54.847Z,22.98
2019-05-23T16:04:25.413Z,19.75
2019-05-23T16:06:56.803Z,12.93
2019-05-23T16:09:31.108Z,16.17
2019-05-23T16:12:00.963Z,11.95
2019-05-23T16:14:31.328Z,11.28
2019-05-23T16:17:01.038Z,10.60
2019-05-23T16:19:30.790Z,11.53
2019-05-23T16:22:11.632Z,13.03
2019-05-23T16:24:41.378Z,16.45
2019-05-23T16:27:11.885Z,18.95
2019-05-23T16:29:41.673Z,19.00
2019-05-23T16:32:11.382Z,18.32
2019-05-23T16:34:41.232Z,15.18
2019-05-23T16:37:11.047Z,12.13
2019-05-23T16:39:47.414Z,9.95
2019-05-23T16:42:13.636Z,9.98
2019-05-23T16:44:43.407Z,10.23
2019-05-23T16:47:13.211Z,9.95
2019-05-23T16:49:43.226Z,14.87
2019-05-23T16:52:12.963Z,22.40
2019-05-23T16:54:44.751Z,30.48
2019-05-23T16:57:31.030Z,29.82
2019-05-23T17:00:02.374Z,30.80
2019-05-23T17:02:38.033Z,30.27
2019-05-23T17:05:16.151Z,20.37
2019-05-23T17:07:46.016Z,25.60
2019-05-23T17:10:32.466Z,16.82
2019-05-23T17:13:09.986Z,10.48
2019-05-23T17:15:50.511Z,11.55
2019-05-23T17:18:24.287Z,12.20
2019-05-23T17:20:55.607Z,10.72
2019-05-23T17:23:29.872Z,11.53
2019-05-23T17:26:02.294Z,10.35
2019-05-23T17:28:36.501Z,10.58
2019-05-23T17:31:08.030Z,10.58
2019-05-23T17:33:38.242Z,20.92
2019-05-23T17:36:07.994Z,35.25
2019-05-23T17:38:37.806Z,27.40
2019-05-23T17:41:07.522Z,11.28
2019-05-23T17:43:37.339Z,10.43
2019-05-23T17:46:07.090Z,10.08
2019-05-23T17:48:38.483Z,10.93
2019-05-23T17:51:08.242Z,10.13
2019-05-23T17:53:37.966Z,9.15
2019-05-23T17:56:08.706Z,9.98
2019-05-23T17:58:38.427Z,8.27
2019-05-23T18:01:08.608Z,7.50
2019-05-23T18:03:38.405Z,7.40
2019-05-23T18:06:08.495Z,7.00
2019-05-23T18:08:39.071Z,8.53
2019-05-23T18:11:08.922Z,8.28
2019-05-23T18:13:39.151Z,8.60
2019-05-23T18:16:09.194Z,7.37
2019-05-23T18:18:39.514Z,7.72
2019-05-23T18:21:10.478Z,7.55
2019-05-23T18:23:40.888Z,7.67
2019-05-23T18:26:11.023Z,8.08
2019-05-23T18:28:40.734Z,8.75
2019-05-23T18:31:18.266Z,7.08
2019-05-23T18:33:48.586Z,8.38
2019-05-23T18:36:19.358Z,7.65
2019-05-23T18:38:49.817Z,8.40
2019-05-23T18:41:19.614Z,7.78
2019-05-23T18:43:50.611Z,8.25
2019-05-23T18:46:21.935Z,8.78
2019-05-23T18:48:51.751Z,7.47
2019-05-23T18:51:21.463Z,7.20
2019-05-23T18:53:51.291Z,7.12
2019-05-23T18:56:21.003Z,7.58
2019-05-23T18:58:50.960Z,6.90
2019-05-23T19:01:22.513Z,6.65
2019-05-23T19:03:52.365Z,7.12
2019-05-23T19:06:23.371Z,7.43
2019-05-23T19:08:54.623Z,7.55
2019-05-23T19:11:24.824Z,8.40
2019-05-23T19:13:54.679Z,7.45
2019-05-23T19:16:24.686Z,7.85
2019-05-23T19:18:54.442Z,10.78
2019-05-23T19:21:24.870Z,10.90
2019-05-23T19:23:54.630Z,8.85
2019-05-23T19:26:24.840Z,8.18
2019-05-23T19:28:54.882Z,7.83
2019-05-23T19:31:25.114Z,8.60
2019-05-23T19:33:55.129Z,8.53
2019-05-23T19:36:24.871Z,8.78
2019-05-23T19:38:54.594Z,10.10
2019-05-23T19:41:37.095Z,8.30
2019-05-23T19:43:55.959Z,8.83
2019-05-23T19:46:25.656Z,9.55
2019-05-23T19:48:58.008Z,8.88
2019-05-23T19:51:27.924Z,9.48
2019-05-23T19:53:58.042Z,9.43
2019-05-23T19:56:27.987Z,9.95
2019-05-23T19:58:57.846Z,10.28
2019-05-23T20:01:32.007Z,10.00
2019-05-23T20:04:00.559Z,9.23
2019-05-23T20:06:31.179Z,9.90
2019-05-23T20:09:01.734Z,8.98
2019-05-23T20:11:33.099Z,8.00
2019-05-23T20:14:02.964Z,8.78
2019-05-23T20:16:32.680Z,8.05
2019-05-23T20:19:03.618Z,7.90
2019-05-23T20:21:33.838Z,7.87
2019-05-23T20:24:03.570Z,9.50
2019-05-23T20:26:33.287Z,8.23
2019-05-23T20:29:03.560Z,8.78
2019-05-23T20:31:33.565Z,8.90
2019-05-23T20:34:06.452Z,9.40
2019-05-23T20:36:34.638Z,8.55
2019-05-23T20:39:06.919Z,8.78
2019-05-23T20:41:37.378Z,8.43
2019-05-23T20:44:08.188Z,7.90
2019-05-23T20:46:38.612Z,8.20
2019-05-23T20:49:08.366Z,7.78
2019-05-23T20:51:38.114Z,7.12
2019-05-23T20:54:07.826Z,6.90
2019-05-23T20:56:37.937Z,7.85
2019-05-23T20:59:08.448Z,6.67
2019-05-23T21:01:39.724Z,7.03
2019-05-23T21:04:09.486Z,7.05
2019-05-23T21:06:39.195Z,7.90
2019-05-23T21:09:09.253Z,9.73
2019-05-23T21:11:38.952Z,9.23
2019-05-23T21:14:08.666Z,7.72
2019-05-23T21:16:38.379Z,8.88
2019-05-23T21:19:08.106Z,7.87
2019-05-23T21:21:37.870Z,9.90
2019-05-23T21:24:07.639Z,8.30
2019-05-23T21:26:37.405Z,8.23
2019-05-23T21:29:07.211Z,6.92
2019-05-23T21:31:37.050Z,8.18
2019-05-23T21:34:06.762Z,8.23
2019-05-23T21:36:36.762Z,9.63
2019-05-23T21:39:08.800Z,8.60
2019-05-23T21:41:39.712Z,8.48
2019-05-23T21:44:09.458Z,7.83
2019-05-23T21:46:39.162Z,8.10
2019-05-23T21:49:08.913Z,8.55
2019-05-23T21:51:38.633Z,7.83
2019-05-23T21:54:08.351Z,7.25
2019-05-23T21:56:38.062Z,6.28
2019-05-23T21:59:07.782Z,7.83
2019-05-23T22:01:39.431Z,7.35
2019-05-23T22:04:20.068Z,6.00
2019-05-23T22:07:00.045Z,6.10
2019-05-23T22:09:29.865Z,5.92
2019-05-23T22:12:06.127Z,6.50
2019-05-23T22:14:35.942Z,6.58
2019-05-23T22:17:05.658Z,6.20
2019-05-23T22:19:35.370Z,6.55
2019-05-23T22:22:05.494Z,7.00
2019-05-23T22:24:35.665Z,6.20
2019-05-23T22:27:07.019Z,7.03
2019-05-23T22:29:36.799Z,6.50
2019-05-23T22:32:07.887Z,6.45
2019-05-23T22:34:45.263Z,7.03
2019-05-23T22:37:16.542Z,6.87
2019-05-23T22:39:46.299Z,6.62
2019-05-23T22:42:16.705Z,8.03
2019-05-23T22:44:46.462Z,7.80
2019-05-23T22:47:16.186Z,8.23
2019-05-23T22:49:45.938Z,7.67
2019-05-23T22:52:15.572Z,6.95
2019-05-23T22:54:45.294Z,8.00
2019-05-23T22:57:15.018Z,6.85
2019-05-23T22:59:44.734Z,8.50
2019-05-23T23:02:16.030Z,9.05
2019-05-23T23:04:45.786Z,8.68
2019-05-23T23:07:16.414Z,8.58
2019-05-23T23:09:46.582Z,7.78
2019-05-23T23:12:19.614Z,7.95
2019-05-23T23:14:49.571Z,8.20
2019-05-23T23:17:21.086Z,9.48
2019-05-23T23:19:50.780Z,10.32
2019-05-23T23:22:20.430Z,9.80
2019-05-23T23:24:50.144Z,8.35
2019-05-23T23:27:20.154Z,8.68
2019-05-23T23:29:49.997Z,8.15
2019-05-23T23:32:19.715Z,8.08
2019-05-23T23:34:49.435Z,8.33
2019-05-23T23:37:19.206Z,7.53
2019-05-23T23:39:48.946Z,8.38
2019-05-23T23:42:18.718Z,9.05
2019-05-23T23:44:47.687Z,10.10
2019-05-23T23:47:35.531Z,9.35
2019-05-23T23:50:24.410Z,9.60
2019-05-23T23:53:11.856Z,8.33
2019-05-23T23:55:59.717Z,9.30
2019-05-23T23:58:28.726Z,7.92
